Time;durP1;ratioP1;P1;durP2;ratioP2;P2;SDS_P1;SDS_P2;PMS_P1;PMS_P2;Temp;Humidity;BMP_temperature;BMP_pressure;BME280_temperature;BME280_humidity;BME280_pressure;Samples;Min_cycle;Max_cycle;Signal;HPM_P1;HPM_P2
2022/08/09 00:01:31;;;;;;;4.18;2.85;;;;;;;16.33;100.00;101719.03;7700611;23;20241;-86
2022/08/09 00:04:54;;;;;;;5.65;3.20;;;;;;;16.26;100.00;101718.69;7701578;23;20351;-86
2022/08/09 00:08:16;;;;;;;3.38;2.90;;;;;;;16.22;100.00;101721.69;7701607;23;20089;-86
2022/08/09 00:11:33;;;;;;;4.15;3.03;;;;;;;16.21;100.00;101714.81;7701047;23;20025;-86
2022/08/09 00:14:56;;;;;;;5.80;2.97;;;;;;;16.17;100.00;101709.00;7701573;23;20068;-86
2022/08/09 00:18:01;;;;;;;2.80;2.50;;;;;;;16.11;100.00;101717.38;7675724;23;20025;-86
2022/08/09 00:21:12;;;;;;;3.72;2.50;;;;;;;16.02;100.00;101718.13;7700352;23;20021;-86
2022/08/09 00:24:14;;;;;;;4.15;2.90;;;;;;;15.89;100.00;101706.09;7701609;23;20485;-86
2022/08/09 00:27:20;;;;;;;2.85;2.55;;;;;;;15.78;100.00;101716.59;7700733;23;20021;-86
2022/08/09 00:30:22;;;;;;;3.17;2.45;;;;;;;15.70;100.00;101712.00;7700872;23;20104;-86
2022/08/09 00:33:27;;;;;;;4.13;3.08;;;;;;;15.69;100.00;101712.94;7700965;23;20028;-86
2022/08/09 00:36:49;;;;;;;4.20;3.00;;;;;;;15.68;100.00;101713.06;7702419;23;20020;-86
2022/08/09 00:39:52;;;;;;;4.65;2.67;;;;;;;15.67;100.00;101712.19;7700036;23;20044;-86
2022/08/09 00:43:12;;;;;;;3.42;2.78;;;;;;;15.69;100.00;101712.94;7699469;23;20024;-86
2022/08/09 00:46:35;;;;;;;3.58;2.40;;;;;;;15.64;100.00;101709.84;7700594;23;20028;-86
2022/08/09 00:49:57;;;;;;;4.28;2.90;;;;;;;15.59;100.00;101704.19;7679525;23;20024;-86
2022/08/09 00:52:59;;;;;;;4.78;2.55;;;;;;;15.57;100.00;101708.69;7673902;23;20075;-86
2022/08/09 00:56:14;;;;;;;5.07;2.40;;;;;;;15.56;100.00;101704.44;7700414;23;20522;-86
2022/08/09 00:59:16;;;;;;;3.85;2.60;;;;;;;15.58;100.00;101709.53;7700827;23;20020;-86
2022/08/09 01:02:45;;;;;;;3.28;2.55;;;;;;;15.55;100.00;101709.78;7702937;23;20031;-86
2022/08/09 01:06:08;;;;;;;3.72;2.60;;;;;;;15.49;100.00;101711.91;7702804;23;20075;-86
2022/08/09 01:09:28;;;;;;;5.65;2.50;;;;;;;15.51;100.00;101709.19;7700186;23;20023;-86
2022/08/09 01:12:44;;;;;;;7.35;2.80;;;;;;;15.49;100.00;101713.72;7703841;23;20470;-86
2022/08/09 01:15:49;;;;;;;5.13;2.65;;;;;;;15.48;100.00;101725.13;7703921;23;20028;-86
2022/08/09 01:18:59;;;;;;;3.30;2.50;;;;;;;15.46;100.00;101727.00;7703400;23;20016;-86
2022/08/09 01:22:38;;;;;;;3.40;2.47;;;;;;;15.39;100.00;101725.84;7704583;23;20017;-86
2022/08/09 01:26:13;;;;;;;3.60;2.63;;;;;;;15.38;100.00;101725.03;7704290;23;20466;-86
2022/08/09 01:29:18;;;;;;;5.45;2.60;;;;;;;15.37;100.00;101727.75;7701451;23;20016;-86
2022/08/09 01:32:35;;;;;;;3.50;2.78;;;;;;;15.32;100.00;101729.88;7702735;23;20074;-86
2022/08/09 01:35:49;;;;;;;4.60;3.00;;;;;;;15.28;100.00;101721.50;7702437;23;20052;-86
2022/08/09 01:38:53;;;;;;;5.70;2.60;;;;;;;15.22;100.00;101721.97;7703701;23;20025;-86
2022/08/09 01:41:58;;;;;;;6.00;2.55;;;;;;;15.13;100.00;101722.69;7702729;23;20106;-86
2022/08/09 01:45:06;;;;;;;4.40;2.92;;;;;;;15.03;100.00;101718.22;7703433;23;20020;-86
2022/08/09 01:48:09;;;;;;;4.20;2.53;;;;;;;14.93;100.00;101721.66;7703484;23;20025;-86
2022/08/09 01:51:17;;;;;;;4.07;2.70;;;;;;;14.86;100.00;101716.94;7703382;23;20020;-86
2022/08/09 01:54:29;;;;;;;6.13;3.22;;;;;;;14.79;100.00;101710.53;7677339;23;20023;-86
2022/08/09 01:57:40;;;;;;;4.05;2.70;;;;;;;14.72;100.00;101714.56;7703104;23;20020;-86
2022/08/09 02:00:48;;;;;;;4.30;2.53;;;;;;;14.70;100.00;101716.44;7702365;23;20028;-86
2022/08/09 02:03:55;;;;;;;4.30;3.17;;;;;;;14.64;100.00;101709.94;7702557;23;20027;-86
2022/08/09 02:07:08;;;;;;;6.45;2.72;;;;;;;14.62;100.00;101706.63;7676162;23;20466;-86
2022/08/09 02:10:37;;;;;;;4.75;3.10;;;;;;;14.66;100.00;101709.84;7699008;23;20082;-86
2022/08/09 02:13:40;;;;;;;5.45;3.33;;;;;;;14.69;100.00;101714.81;7703139;23;20143;-86
2022/08/09 02:16:44;;;;;;;4.97;3.00;;;;;;;14.68;100.00;101723.56;7676636;23;20354;-86
2022/08/09 02:20:06;;;;;;;4.90;2.97;;;;;;;14.64;100.00;101716.94;7702510;23;20040;-86
2022/08/09 02:23:41;;;;;;;6.35;3.00;;;;;;;14.58;100.00;101720.00;7702830;23;20099;-86
2022/08/09 02:26:46;;;;;;;3.63;3.03;;;;;;;14.48;100.00;101719.03;7550261;23;20485;-86
2022/08/09 02:29:52;;;;;;;3.42;2.70;;;;;;;14.44;100.00;101719.25;7527095;23;20093;-86
2022/08/09 02:32:56;;;;;;;5.05;3.15;;;;;;;14.37;100.00;101718.06;7527785;23;20491;-86
2022/08/09 02:36:01;;;;;;;6.07;3.67;;;;;;;14.36;100.00;101716.41;7527047;23;20312;-86
2022/08/09 02:39:09;;;;;;;4.65;3.53;;;;;;;14.36;100.00;101718.16;7550418;23;20037;-86
2022/08/09 02:42:26;;;;;;;6.60;3.30;;;;;;;14.34;100.00;101712.28;7528396;23;20037;-86
2022/08/09 02:45:33;;;;;;;4.43;3.35;;;;;;;14.29;100.00;101711.78;7551485;23;20089;-86
2022/08/09 02:48:37;;;;;;;6.22;3.38;;;;;;;14.21;100.00;101710.59;7527071;23;20485;-86
2022/08/09 02:51:54;;;;;;;3.80;3.10;;;;;;;14.21;100.00;101712.38;7551338;23;20026;-86
2022/08/09 02:54:58;;;;;;;3.65;3.03;;;;;;;14.18;100.00;101720.38;7527003;23;20035;-86
2022/08/09 02:58:05;;;;;;;4.32;3.17;;;;;;;14.15;100.00;101712.81;7551386;23;20029;-86
2022/08/09 03:01:30;;;;;;;5.63;3.30;;;;;;;14.06;100.00;101716.09;7593949;23;20032;-86
2022/08/09 03:04:54;;;;;;;5.57;3.25;;;;;;;13.99;100.00;101711.38;7703106;23;20024;-86
2022/08/09 03:07:59;;;;;;;3.35;3.00;;;;;;;13.95;100.00;101709.09;7701751;23;20027;-85
2022/08/09 03:11:03;;;;;;;6.22;3.78;;;;;;;13.95;100.00;101712.53;7676118;23;20470;-86
2022/08/09 03:14:07;;;;;;;3.95;3.25;;;;;;;13.99;100.00;101713.16;7675069;23;20020;-86
2022/08/09 03:17:12;;;;;;;6.43;3.58;;;;;;;13.99;100.00;101719.19;7701612;23;20440;-86
2022/08/09 03:20:18;;;;;;;4.70;3.28;;;;;;;14.02;100.00;101714.69;7701806;23;20513;-86
2022/08/09 03:23:24;;;;;;;6.88;4.50;;;;;;;14.02;100.00;101715.50;7675720;23;20115;-86
2022/08/09 03:26:27;;;;;;;4.78;3.47;;;;;;;13.97;100.00;101722.84;7701243;23;20501;-85
2022/08/09 03:29:34;;;;;;;4.30;3.33;;;;;;;13.96;100.00;101724.63;7702061;23;20024;-86
2022/08/09 03:32:59;;;;;;;4.63;3.35;;;;;;;13.94;100.00;101736.09;7679624;23;20114;-86
2022/08/09 03:36:07;;;;;;;4.95;3.58;;;;;;;13.90;100.00;101732.03;7702209;23;20114;-86
2022/08/09 03:39:17;;;;;;;4.35;3.78;;;;;;;13.90;100.00;101730.25;7703777;23;20356;-86
2022/08/09 03:42:19;;;;;;;5.30;3.80;;;;;;;13.90;100.00;101726.84;7704190;23;20020;-86
2022/08/09 03:45:29;;;;;;;4.38;3.75;;;;;;;13.96;100.00;101721.16;7704642;23;20016;-86
2022/08/09 03:48:55;;;;;;;4.90;3.60;;;;;;;13.98;100.00;101720.09;7701921;23;21114;-86
2022/08/09 03:51:59;;;;;;;4.53;4.13;;;;;;;13.99;100.00;101723.56;7704898;23;20497;-86
2022/08/09 03:55:06;;;;;;;5.15;3.53;;;;;;;13.93;100.00;101724.81;7703561;23;20027;-86
2022/08/09 03:58:10;;;;;;;5.20;3.40;;;;;;;13.88;100.00;101720.91;7704594;23;20097;-86
2022/08/09 04:01:17;;;;;;;4.75;3.50;;;;;;;13.87;100.00;101724.47;7704383;23;20025;-86
2022/08/09 04:04:21;;;;;;;3.83;3.13;;;;;;;13.83;100.00;101726.44;7704376;23;20046;-86
2022/08/09 04:07:28;;;;;;;5.68;3.70;;;;;;;13.84;100.00;101724.66;7704592;23;20025;-86
2022/08/09 04:10:50;;;;;;;6.25;3.60;;;;;;;13.87;100.00;101730.50;7682593;23;20027;-86
2022/08/09 04:13:55;;;;;;;5.00;3.65;;;;;;;13.87;100.00;101724.47;7677512;23;20406;-86
2022/08/09 04:17:17;;;;;;;7.03;3.80;;;;;;;13.88;100.00;101726.09;7702987;23;20406;-86
2022/08/09 04:20:19;;;;;;;7.80;3.95;;;;;;;13.84;100.00;101729.88;7703973;23;20027;-86
2022/08/09 04:23:24;;;;;;;5.55;3.95;;;;;;;13.90;100.00;101726.84;7704343;23;20021;-86
2022/08/09 04:26:26;;;;;;;6.85;3.80;;;;;;;13.95;100.00;101733.34;7703641;23;20027;-86
2022/08/09 04:29:38;;;;;;;4.55;3.90;;;;;;;13.98;100.00;101738.31;7697915;23;20390;-86
2022/08/09 04:32:51;;;;;;;7.68;4.00;;;;;;;13.98;100.00;101743.53;7701734;23;20459;-86
2022/08/09 04:35:54;;;;;;;4.25;3.70;;;;;;;14.00;100.00;101746.03;7701202;23;20091;-86
2022/08/09 04:39:02;;;;;;;4.80;3.90;;;;;;;14.02;100.00;101741.53;7702275;23;20523;-86
2022/08/09 04:42:05;;;;;;;6.18;3.65;;;;;;;14.02;100.00;101749.34;7703670;23;20051;-86
2022/08/09 04:45:10;;;;;;;5.28;3.83;;;;;;;14.04;100.00;101750.09;7702023;23;20024;-86
2022/08/09 04:48:12;;;;;;;5.63;4.00;;;;;;;14.07;100.00;101764.63;7703572;23;20024;-86
2022/08/09 04:51:15;;;;;;;6.40;4.22;;;;;;;14.10;100.00;101759.19;7675767;23;20016;-86
2022/08/09 04:54:17;;;;;;;4.18;3.60;;;;;;;14.14;100.00;101766.69;7702282;23;20020;-86
2022/08/09 04:57:19;;;;;;;5.13;3.97;;;;;;;14.20;100.00;101762.78;7703086;23;20332;-86
2022/08/09 05:00:25;;;;;;;6.13;3.95;;;;;;;14.26;100.00;101764.94;7701138;23;20020;-86
2022/08/09 05:03:34;;;;;;;7.85;3.88;;;;;;;14.31;100.00;101765.44;7677747;23;20408;-86
2022/08/09 05:06:44;;;;;;;8.57;4.38;;;;;;;14.35;100.00;101766.84;7676191;23;20048;-86
2022/08/09 05:09:51;;;;;;;7.45;4.00;;;;;;;14.39;100.00;101773.50;7650723;23;20031;-86
2022/08/09 05:12:53;;;;;;;7.05;4.13;;;;;;;14.46;100.00;101773.00;7702481;23;20387;-86
2022/08/09 05:15:55;;;;;;;8.35;4.82;;;;;;;14.50;100.00;101770.06;7701852;23;20020;-86
2022/08/09 05:18:57;;;;;;;4.55;3.67;;;;;;;14.52;100.00;101775.16;7702842;23;20094;-86
2022/08/09 05:22:01;;;;;;;5.53;4.13;;;;;;;14.53;100.00;101775.06;7702103;23;20691;-86
2022/08/09 05:25:04;;;;;;;5.90;3.85;;;;;;;14.58;100.00;101772.97;7702700;23;20028;-86
2022/08/09 05:28:06;;;;;;;6.53;3.97;;;;;;;14.65;100.00;101770.72;7702170;23;20021;-87
2022/08/09 05:31:08;;;;;;;5.20;3.92;;;;;;;14.69;100.00;101774.75;7675849;23;20020;-86
2022/08/09 05:34:10;;;;;;;5.32;3.83;;;;;;;14.73;100.00;101780.53;7701059;23;20017;-86
2022/08/09 05:37:18;;;;;;;6.53;3.95;;;;;;;14.77;100.00;101784.59;7701130;23;20464;-86
2022/08/09 05:40:20;;;;;;;8.65;4.10;;;;;;;14.83;100.00;101784.94;7702964;23;20320;-86
2022/08/09 05:43:23;;;;;;;5.82;3.83;;;;;;;14.93;100.00;101784.22;7702104;23;20375;-86
2022/08/09 05:46:30;;;;;;;4.30;3.50;;;;;;;14.96;100.00;101791.84;7702275;23;20346;-87
2022/08/09 05:49:32;;;;;;;6.55;4.13;;;;;;;14.98;100.00;101788.16;7701895;23;20084;-86
2022/08/09 05:52:54;;;;;;;4.85;3.63;;;;;;;15.02;100.00;101786.13;7701559;23;20017;-86
2022/08/09 05:55:56;;;;;;;6.45;4.30;;;;;;;15.07;100.00;101794.41;7701119;23;20340;-87
2022/08/09 05:58:58;;;;;;;4.88;4.38;;;;;;;15.12;100.00;101788.84;7701418;23;20351;-86
2022/08/09 06:02:00;;;;;;;6.28;3.97;;;;;;;15.16;100.00;101798.09;7701536;23;20028;-86
2022/08/09 06:05:03;;;;;;;5.47;4.45;;;;;;;15.22;100.00;101798.44;7702022;23;20139;-86
2022/08/09 06:08:06;;;;;;;6.68;3.83;;;;;;;15.24;100.00;101793.94;7701543;23;20028;-86
2022/08/09 06:11:10;;;;;;;5.97;4.57;;;;;;;15.32;100.00;101803.75;7701783;23;20017;-86
2022/08/09 06:14:18;;;;;;;4.22;3.75;;;;;;;15.39;100.00;101802.34;7701618;23;20024;-86
2022/08/09 06:17:20;;;;;;;7.88;4.60;;;;;;;15.42;100.00;101799.47;7674556;23;20031;-86
2022/08/09 06:20:22;;;;;;;6.40;4.03;;;;;;;15.48;100.00;101801.63;7701657;23;20021;-86
2022/08/09 06:23:27;;;;;;;6.78;4.15;;;;;;;15.55;100.00;101809.75;7701294;23;20031;-87
2022/08/09 06:26:49;;;;;;;8.02;3.80;;;;;;;15.61;100.00;101813.69;7702537;23;20032;-87
2022/08/09 06:29:51;;;;;;;6.78;3.67;;;;;;;15.69;100.00;101808.69;7701987;23;20086;-86
2022/08/09 06:33:10;;;;;;;5.38;4.20;;;;;;;15.75;100.00;101810.00;7701504;23;20524;-86
2022/08/09 06:36:32;;;;;;;5.43;3.85;;;;;;;15.81;100.00;101806.91;7702558;23;20012;-87
2022/08/09 06:39:35;;;;;;;6.90;4.20;;;;;;;15.88;100.00;101811.50;7699600;23;20331;-87
2022/08/09 06:42:57;;;;;;;9.85;4.30;;;;;;;15.92;100.00;101815.53;7700773;23;20024;-87
2022/08/09 06:46:02;;;;;;;4.38;3.15;;;;;;;15.99;100.00;101823.69;7700742;23;20020;-87
2022/08/09 06:49:08;;;;;;;5.75;3.35;;;;;;;16.07;100.00;101818.69;7701557;23;20395;-87
2022/08/09 06:52:10;;;;;;;5.68;3.40;;;;;;;16.13;100.00;101819.94;7701455;23;20499;-87
2022/08/09 06:55:18;;;;;;;5.32;3.08;;;;;;;16.15;100.00;101818.06;7701359;23;20020;-87
2022/08/09 06:58:24;;;;;;;4.32;3.00;;;;;;;16.21;100.00;101822.75;7701590;23;20024;-86
2022/08/09 07:01:47;;;;;;;5.55;3.17;;;;;;;16.29;100.00;101824.75;7702123;23;20021;-87
2022/08/09 07:04:59;;;;;;;4.82;2.80;;;;;;;16.39;100.00;101828.25;7701963;23;20471;-87
2022/08/09 07:08:01;;;;;;;4.05;2.78;;;;;;;16.46;100.00;101826.78;7700535;23;20021;-86
2022/08/09 07:11:04;;;;;;;3.80;3.15;;;;;;;16.53;100.00;101820.09;7700508;23;20023;-87
2022/08/09 07:14:07;;;;;;;4.88;2.70;;;;;;;16.64;100.00;101820.97;7703339;23;20358;-89
2022/08/09 07:17:09;;;;;;;5.07;2.85;;;;;;;16.75;100.00;101826.97;7676698;23;20473;-87
2022/08/09 07:20:13;;;;;;;4.50;2.63;;;;;;;16.86;100.00;101828.69;7678235;23;20025;-86
2022/08/09 07:23:16;;;;;;;5.75;2.53;;;;;;;16.96;100.00;101829.56;7677043;23;20068;-87
2022/08/09 07:26:20;;;;;;;3.20;2.33;;;;;;;17.06;100.00;101834.84;7697963;23;20036;-87
2022/08/09 07:29:24;;;;;;;5.72;2.22;;;;;;;17.15;100.00;101830.63;7674206;23;20123;-87
2022/08/09 07:32:31;;;;;;;3.65;1.83;;;;;;;17.20;100.00;101838.91;7701831;23;20090;-86
2022/08/09 07:35:35;;;;;;;2.38;1.77;;;;;;;17.29;100.00;101838.13;7702508;23;20021;-86
2022/08/09 07:38:56;;;;;;;2.60;2.20;;;;;;;17.36;100.00;101830.53;7678275;23;20024;-86
2022/08/09 07:42:03;;;;;;;2.78;1.67;;;;;;;17.43;100.00;101835.09;7675533;23;20332;-86
2022/08/09 07:45:07;;;;;;;3.25;1.70;;;;;;;17.53;99.15;101829.06;7701704;23;20017;-86
2022/08/09 07:48:25;;;;;;;2.47;1.60;;;;;;;17.66;96.32;101829.63;7678716;23;20026;-86
2022/08/09 07:51:32;;;;;;;2.00;1.80;;;;;;;17.74;96.36;101831.56;7701923;23;20017;-87
2022/08/09 07:54:54;;;;;;;1.88;1.55;;;;;;;17.81;94.03;101828.34;7701669;23;20063;-87
2022/08/09 07:57:58;;;;;;;1.98;1.70;;;;;;;17.91;92.18;101824.88;7701406;23;20028;-87
2022/08/09 08:01:00;;;;;;;4.45;1.70;;;;;;;18.02;91.41;101827.38;7702003;23;20027;-87
2022/08/09 08:04:11;;;;;;;3.78;1.67;;;;;;;18.12;89.95;101815.09;7701358;23;20328;-86
2022/08/09 08:07:13;;;;;;;4.18;1.98;;;;;;;18.23;88.61;101820.16;7701404;23;20023;-87
2022/08/09 08:10:36;;;;;;;4.72;1.70;;;;;;;18.37;88.11;101812.88;7701495;23;20426;-87
2022/08/09 08:13:39;;;;;;;5.32;1.77;;;;;;;18.49;87.54;101809.13;7675149;23;20324;-86
2022/08/09 08:16:57;;;;;;;4.22;1.90;;;;;;;18.59;87.59;101823.03;7701004;23;20024;-87
2022/08/09 08:20:11;;;;;;;2.10;1.50;;;;;;;18.68;86.92;101818.72;7702187;23;20028;-87
2022/08/09 08:23:16;;;;;;;2.97;1.60;;;;;;;18.77;85.21;101828.38;7701837;23;20351;-87
2022/08/09 08:26:18;;;;;;;4.20;2.22;;;;;;;18.91;84.16;101827.09;7700748;23;20116;-87
2022/08/09 08:29:40;;;;;;;3.97;1.90;;;;;;;19.01;83.61;101821.81;7701264;23;20020;-86
2022/08/09 08:32:51;;;;;;;3.35;1.70;;;;;;;19.09;82.57;101825.38;7700227;23;20017;-87
2022/08/09 08:35:54;;;;;;;2.75;1.70;;;;;;;19.21;81.12;101835.69;7701481;23;20338;-87
2022/08/09 08:39:04;;;;;;;2.38;1.65;;;;;;;19.31;81.09;101836.47;7700371;23;20325;-87
2022/08/09 08:42:07;;;;;;;7.05;2.30;;;;;;;19.40;80.81;101830.31;7700635;23;20037;-87
2022/08/09 08:45:11;;;;;;;2.40;1.90;;;;;;;19.50;80.01;101827.63;7702077;23;20020;-86
2022/08/09 08:48:14;;;;;;;3.88;2.17;;;;;;;19.62;79.58;101830.88;7674997;23;20043;-87
2022/08/09 08:51:21;;;;;;;4.38;2.08;;;;;;;19.76;78.76;101830.41;7701580;23;20032;-83
2022/08/09 08:54:24;;;;;;;5.10;1.90;;;;;;;19.83;77.88;101828.84;7700559;23;20024;-86
2022/08/09 08:57:30;;;;;;;2.55;1.83;;;;;;;19.96;77.61;101823.19;7699957;23;20327;-89
2022/08/09 09:00:36;;;;;;;3.50;1.75;;;;;;;20.11;76.08;101824.31;7702109;23;20020;-87
2022/08/09 09:03:40;;;;;;;2.80;1.75;;;;;;;20.19;74.37;101826.19;7700765;23;20382;-87
2022/08/09 09:06:44;;;;;;;4.88;2.10;;;;;;;20.29;73.70;101833.97;7699537;23;20020;-87
2022/08/09 09:09:48;;;;;;;2.75;2.10;;;;;;;20.33;71.87;101841.41;7699455;23;20921;-87
2022/08/09 09:13:03;;;;;;;4.15;2.22;;;;;;;20.39;70.30;101834.69;7700635;23;20364;-87
2022/08/09 09:16:10;;;;;;;5.00;1.95;;;;;;;20.55;69.86;101834.84;7700218;23;20021;-87
2022/08/09 09:19:13;;;;;;;2.25;1.85;;;;;;;20.60;69.98;101837.03;7701668;23;20027;-87
2022/08/09 09:22:57;;;;;;;3.17;1.85;;;;;;;20.63;69.13;101836.72;7699959;23;20031;-87
2022/08/09 09:26:03;;;;;;;4.55;2.15;;;;;;;20.75;69.41;101839.91;7673262;23;20035;-87
2022/08/09 09:29:13;;;;;;;;;;;;;;;20.94;65.23;101834.41;7700980;23;20016;-87
2022/08/09 09:32:22;;;;;;;3.05;1.67;;;;;;;21.03;65.70;101835.28;7701370;23;20350;-87
2022/08/09 09:35:54;;;;;;;3.92;2.17;;;;;;;21.07;63.46;101834.81;7701021;23;20028;-87
2022/08/09 09:39:08;;;;;;;2.67;2.25;;;;;;;21.11;64.75;101837.94;7673250;23;20027;-86
2022/08/09 09:42:22;;;;;;;3.60;2.15;;;;;;;21.18;63.31;101836.31;7701053;23;20028;-86
2022/08/09 09:45:25;;;;;;;4.15;2.10;;;;;;;21.35;63.60;101844.28;7674318;23;20016;-87
2022/08/09 09:48:31;;;;;;;3.97;1.80;;;;;;;21.41;62.00;101841.84;7674559;23;20024;-87
2022/08/09 09:51:34;;;;;;;2.05;1.70;;;;;;;21.50;61.94;101832.19;7700146;23;20027;-87
2022/08/09 09:54:42;;;;;;;2.92;1.80;;;;;;;21.66;62.89;101840.13;7699284;23;20047;-87
2022/08/09 09:58:01;;;;;;;3.63;1.88;;;;;;;21.80;60.56;101841.28;7698764;23;20434;-87
2022/08/09 10:01:21;;;;;;;2.40;1.95;;;;;;;21.94;58.98;101827.47;7699314;23;20592;-88
2022/08/09 10:04:38;;;;;;;4.13;1.52;;;;;;;22.18;58.95;101827.63;7672806;23;20400;-87
2022/08/09 10:07:40;;;;;;;4.97;2.05;;;;;;;22.31;60.00;101825.31;7700023;23;20020;-87
2022/08/09 10:11:14;;;;;;;4.65;2.10;;;;;;;22.38;60.23;101828.94;7698461;23;20024;-88
2022/08/09 10:14:37;;;;;;;2.72;2.05;;;;;;;22.47;59.67;101822.69;7698933;23;20025;-88
2022/08/09 10:17:39;;;;;;;7.68;2.03;;;;;;;22.64;57.66;101830.56;7699128;23;20107;-88
2022/08/09 10:21:10;;;;;;;3.05;2.22;;;;;;;22.90;55.45;101817.13;7699420;23;20040;-87
2022/08/09 10:24:14;;;;;;;2.47;2.00;;;;;;;23.20;56.77;101820.81;7700328;23;20027;-87
2022/08/09 10:27:26;;;;;;;2.13;1.80;;;;;;;23.37;54.93;101816.28;7673244;23;20427;-87
2022/08/09 10:30:40;;;;;;;5.50;2.15;;;;;;;23.47;54.89;101811.56;7672913;23;20028;-87
2022/08/09 10:34:02;;;;;;;4.63;2.30;;;;;;;23.64;53.46;101807.00;7700432;23;20051;-88
2022/08/09 10:37:12;;;;;;;2.80;2.35;;;;;;;23.79;52.95;101810.56;7672559;23;20090;-88
2022/08/09 10:40:15;;;;;;;4.45;2.50;;;;;;;24.00;51.24;101809.91;7699216;23;20082;-88
2022/08/09 10:43:42;;;;;;;2.05;1.90;;;;;;;24.35;52.37;101815.53;7699376;23;20426;-88
2022/08/09 10:47:14;;;;;;;5.15;2.88;;;;;;;24.55;51.15;101813.22;7699749;23;20350;-88
2022/08/09 10:51:08;;;;;;;2.75;2.00;;;;;;;24.61;50.52;101817.78;7699224;23;20024;-88
2022/08/09 10:54:12;;;;;;;3.85;2.33;;;;;;;24.59;49.91;101809.19;7699595;23;20125;-88
2022/08/09 10:57:14;;;;;;;6.05;2.42;;;;;;;24.69;50.08;101815.06;7672493;23;20016;-88
2022/08/09 11:00:36;;;;;;;3.58;2.17;;;;;;;24.96;49.99;101802.13;7698706;23;20116;-84
2022/08/09 11:04:07;;;;;;;3.15;2.28;;;;;;;25.36;47.70;101807.91;7699831;23;20241;-84
2022/08/09 11:07:29;;;;;;;4.38;2.40;;;;;;;25.72;46.11;101805.22;7700405;23;20024;-84
2022/08/09 11:10:52;;;;;;;4.65;2.20;;;;;;;25.96;47.48;101809.34;7699242;23;20020;-85
2022/08/09 11:14:37;;;;;;;2.88;1.95;;;;;;;25.98;44.64;101807.31;7699833;23;20036;-85
2022/08/09 11:17:46;;;;;;;4.10;2.33;;;;;;;25.86;44.78;101808.03;7525545;23;20109;-85
2022/08/09 11:20:57;;;;;;;3.53;2.30;;;;;;;25.76;45.44;101808.31;7547728;23;20090;-84
2022/08/09 11:24:00;;;;;;;3.13;2.05;;;;;;;25.41;48.04;101808.19;7548534;23;20158;-84
2022/08/09 11:27:33;;;;;;;5.00;2.35;;;;;;;25.17;46.63;101805.88;7546865;23;20042;-84
2022/08/09 11:30:54;;;;;;;3.72;2.22;;;;;;;25.00;47.28;101813.19;7549733;23;20030;-84
2022/08/09 11:34:02;;;;;;;3.70;2.15;;;;;;;25.01;47.98;101809.53;7524943;23;20054;-84
2022/08/09 11:37:07;;;;;;;4.60;2.50;;;;;;;25.27;47.90;101806.41;7525806;23;20022;-84
2022/08/09 11:40:31;;;;;;;2.83;2.20;;;;;;;25.20;47.57;101803.69;7548975;23;20026;-85
2022/08/09 11:43:34;;;;;;;4.00;2.30;;;;;;;24.90;48.37;101800.25;7526472;23;20026;-84
2022/08/09 11:46:58;;;;;;;3.05;2.55;;;;;;;24.66;48.82;101799.50;7548932;23;20031;-84
2022/08/09 11:50:03;;;;;;;10.73;2.42;;;;;;;24.79;50.58;101800.69;7701905;23;20016;-84
2022/08/09 11:53:30;;;;;;;4.60;2.30;;;;;;;25.44;46.53;101791.91;7702706;23;20055;-84
2022/08/09 11:56:52;;;;;;;4.47;2.50;;;;;;;26.00;43.75;101785.91;7700023;23;20044;-84
2022/08/09 11:59:55;;;;;;;3.53;2.20;;;;;;;26.55;42.96;101780.75;7703900;23;20119;-85
2022/08/09 12:02:59;;;;;;;2.75;2.08;;;;;;;26.90;42.63;101778.88;7703188;23;20023;-85
2022/08/09 12:06:21;;;;;;;2.42;2.00;;;;;;;27.24;41.92;101778.00;7704147;23;20048;-87
2022/08/09 12:09:29;;;;;;;4.03;2.10;;;;;;;26.90;42.88;101778.06;7676954;23;20101;-86
2022/08/09 12:12:47;;;;;;;3.00;2.00;;;;;;;26.04;44.18;101781.00;7677905;23;20503;-85
2022/08/09 12:16:06;;;;;;;4.28;2.20;;;;;;;25.40;44.49;101773.91;7704677;23;20390;-86
2022/08/09 12:19:30;;;;;;;3.70;2.33;;;;;;;25.15;45.45;101782.19;7702886;23;20024;-86
2022/08/09 12:22:32;;;;;;;2.72;2.33;;;;;;;25.33;47.15;101764.06;7676648;23;20027;-86
2022/08/09 12:25:34;;;;;;;4.40;2.35;;;;;;;25.97;44.79;101762.41;7703417;23;20096;-86
2022/08/09 12:28:53;;;;;;;3.95;2.20;;;;;;;26.65;43.43;101770.59;7702859;23;20048;-86
2022/08/09 12:32:15;;;;;;;2.45;2.25;;;;;;;27.25;42.74;101757.53;7675503;23;20029;-87
2022/08/09 12:35:17;;;;;;;2.88;2.03;;;;;;;27.74;42.41;101760.84;7700414;23;20024;-87
2022/08/09 12:38:29;;;;;;;5.75;2.30;;;;;;;28.12;39.72;101748.56;7702330;23;20359;-87
2022/08/09 12:41:39;;;;;;;5.03;1.85;;;;;;;28.40;38.46;101742.16;7704008;23;20537;-87
2022/08/09 12:44:42;;;;;;;3.22;2.00;;;;;;;28.78;37.77;101747.53;7702971;23;20489;-88
2022/08/09 12:47:53;;;;;;;1.95;1.83;;;;;;;28.99;38.08;101738.44;7703015;23;20346;-87
2022/08/09 12:50:56;;;;;;;3.70;1.77;;;;;;;29.15;37.83;101738.97;7649672;23;20061;-87
2022/08/09 12:54:01;;;;;;;4.47;2.20;;;;;;;29.31;37.23;101738.44;7701951;23;20474;-87
2022/08/09 12:57:04;;;;;;;3.03;1.98;;;;;;;29.47;36.94;101738.94;7701957;23;20031;-87
2022/08/09 13:00:17;;;;;;;3.83;1.98;;;;;;;29.31;38.21;101717.09;7701074;23;20024;-87
2022/08/09 13:03:35;;;;;;;2.30;1.88;;;;;;;28.71;38.67;101727.28;7703489;23;20360;-87
2022/08/09 13:07:09;;;;;;;2.13;1.60;;;;;;;28.19;40.21;101718.44;7701035;23;20075;-87
2022/08/09 13:10:11;;;;;;;3.15;1.75;;;;;;;28.51;39.38;101709.53;7702293;23;20725;-87
2022/08/09 13:13:15;;;;;;;2.25;1.77;;;;;;;28.93;36.60;101715.28;7703867;23;20123;-88
2022/08/09 13:16:17;;;;;;;2.10;1.88;;;;;;;29.28;38.43;101720.19;7703123;23;20017;-87
2022/08/09 13:19:39;;;;;;;2.08;1.50;;;;;;;29.45;38.06;101725.81;7703575;23;20024;-88
2022/08/09 13:23:01;;;;;;;3.05;2.00;;;;;;;29.64;38.10;101724.03;7703333;23;20079;-87
2022/08/09 13:26:41;;;;;;;1.80;1.55;;;;;;;29.74;36.90;101723.53;7702255;23;20025;-87
2022/08/09 13:29:52;;;;;;;6.25;1.80;;;;;;;29.78;35.95;101716.72;7704396;23;20114;-87
2022/08/09 13:33:22;;;;;;;5.55;4.25;;;;;;;29.81;36.69;101719.78;7703873;23;20423;-87
2022/08/09 13:36:26;;;;;;;5.03;1.98;;;;;;;29.86;35.42;101721.78;7701656;23;20020;-88
2022/08/09 13:39:43;;;;;;;2.00;1.60;;;;;;;29.82;34.13;101720.59;7703771;23;20043;-88
2022/08/09 13:43:05;;;;;;;2.80;1.85;;;;;;;29.83;34.83;101717.69;7703070;23;20021;-88
2022/08/09 13:46:10;;;;;;;2.72;1.73;;;;;;;29.86;36.69;101710.28;7702942;23;20198;-87
2022/08/09 13:49:33;;;;;;;1.45;1.35;;;;;;;29.89;34.11;101709.84;7703682;23;20016;-88
2022/08/09 13:52:59;;;;;;;1.70;1.60;;;;;;;30.00;33.92;101701.91;7656384;23;20028;-88
2022/08/09 13:56:02;;;;;;;2.85;1.60;;;;;;;30.13;34.35;101702.81;7702604;23;20021;-88
2022/08/09 13:59:04;;;;;;;2.45;1.85;;;;;;;30.12;34.59;101696.66;7702831;23;20388;-88
2022/08/09 14:02:08;;;;;;;2.17;1.75;;;;;;;30.29;35.14;101694.25;7703868;23;20462;-88
2022/08/09 14:05:10;;;;;;;2.80;2.03;;;;;;;30.44;35.62;101696.53;7702619;23;20020;-88
2022/08/09 14:08:32;;;;;;;3.28;2.08;;;;;;;30.75;33.10;101689.31;7701723;23;20071;-88
2022/08/09 14:11:34;;;;;;;1.98;1.70;;;;;;;30.92;33.50;101697.53;7700835;23;20080;-89
2022/08/09 14:14:49;;;;;;;2.45;1.83;;;;;;;30.81;33.08;101701.78;7701322;23;20352;-88
2022/08/09 14:17:54;;;;;;;3.15;1.55;;;;;;;30.72;31.85;101687.91;7701051;23;20036;-88
2022/08/09 14:21:22;;;;;;;1.60;1.50;;;;;;;30.69;33.16;101693.72;7702025;23;20028;-88
2022/08/09 14:24:25;;;;;;;2.35;1.60;;;;;;;30.91;34.04;101694.06;7701904;23;20020;-87
2022/08/09 14:27:33;;;;;;;2.38;1.48;;;;;;;30.88;32.41;101694.50;7701716;23;20462;-88
2022/08/09 14:30:55;;;;;;;1.40;1.30;;;;;;;30.78;31.46;101691.53;7702439;23;20103;-88
2022/08/09 14:33:58;;;;;;;1.88;1.65;;;;;;;30.77;31.55;101695.25;7700983;23;20196;-88
2022/08/09 14:37:06;;;;;;;1.88;1.58;;;;;;;30.73;32.66;101694.06;7701464;23;20044;-88
2022/08/09 14:40:09;;;;;;;2.45;1.40;;;;;;;30.89;33.64;101678.22;7701905;23;20016;-88
2022/08/09 14:43:13;;;;;;;1.67;1.35;;;;;;;31.17;31.90;101675.97;7702677;23;20074;-87